Time;durP1;ratioP1;P1;durP2;ratioP2;P2;SDS_P1;SDS_P2;PMS_P1;PMS_P2;Temp;Humidity;BMP_temperature;BMP_pressure;BME280_temperature;BME280_humidity;BME280_pressure;Samples;Min_cycle;Max_cycle;Signal;HPM_P1;HPM_P2
2023/02/14 00:01:45;;;;;;;11.97;3.77;;;0.10;99.90;;;;;;4842897;29;20037;-88
2023/02/14 00:04:12;;;;;;;11.63;4.33;;;0.10;99.90;;;;;;4843374;29;20041;-87
2023/02/14 00:06:38;;;;;;;12.43;4.10;;;0.10;99.90;;;;;;4841973;29;20038;-87
2023/02/14 00:09:05;;;;;;;11.43;4.00;;;0.10;99.90;;;;;;4841978;29;20415;-87
2023/02/14 00:11:31;;;;;;;11.47;4.30;;;0.00;99.90;;;;;;4843140;29;20114;-87
2023/02/14 00:16:42;;;;;;;12.67;4.30;;;0.00;99.90;;;;;;4842932;29;20456;-87
2023/02/14 00:19:10;;;;;;;13.00;4.60;;;0.00;99.90;;;;;;4849781;29;20033;-87
2023/02/14 00:21:37;;;;;;;13.10;4.10;;;-0.10;99.90;;;;;;4843042;29;20128;-87
2023/02/14 00:24:16;;;;;;;17.07;4.47;;;-0.10;99.90;;;;;;4856349;29;20030;-87
2023/02/14 00:26:42;;;;;;;14.13;4.70;;;-0.10;99.90;;;;;;4842144;29;20170;-88
2023/02/14 00:29:10;;;;;;;13.53;4.50;;;-0.10;99.90;;;;;;4841238;29;20036;-87
2023/02/14 00:31:36;;;;;;;10.10;4.37;;;-0.10;99.90;;;;;;4842049;29;20038;-88
2023/02/14 00:34:03;;;;;;;11.57;4.20;;;-0.10;99.90;;;;;;4843455;29;20034;-87
2023/02/14 00:36:28;;;;;;;14.10;4.33;;;0.10;99.90;;;;;;4841466;29;20026;-88
2023/02/14 00:38:54;;;;;;;13.67;4.40;;;0.40;99.90;;;;;;4855131;29;20030;-88
2023/02/14 00:41:20;;;;;;;12.93;4.30;;;-0.10;99.90;;;;;;4842258;29;20376;-87
2023/02/14 00:43:48;;;;;;;10.73;3.47;;;-0.10;99.90;;;;;;4854325;29;20545;-88
2023/02/14 00:46:14;;;;;;;11.00;4.00;;;-0.10;99.90;;;;;;4851538;29;20062;-88
2023/02/14 00:48:40;;;;;;;11.70;3.97;;;-0.10;99.90;;;;;;4857635;29;20099;-88
2023/02/14 00:51:07;;;;;;;14.90;4.70;;;-0.20;99.90;;;;;;4848649;29;20025;-88
2023/02/14 00:53:32;;;;;;;13.87;4.13;;;-0.10;99.90;;;;;;4851237;29;20586;-87
2023/02/14 00:55:59;;;;;;;12.07;3.97;;;-0.20;99.90;;;;;;4849907;29;20067;-87
2023/02/14 00:58:25;;;;;;;12.97;4.13;;;-0.10;99.90;;;;;;4849163;29;20470;-88
2023/02/14 01:00:51;;;;;;;12.17;4.67;;;-0.20;99.90;;;;;;4851935;29;20068;-86
2023/02/14 01:03:17;;;;;;;13.30;4.23;;;-0.20;99.90;;;;;;4841640;29;20037;-88
2023/02/14 01:05:43;;;;;;;11.47;3.90;;;-0.20;99.90;;;;;;4841438;29;20040;-88
2023/02/14 01:08:09;;;;;;;11.80;4.20;;;-0.20;99.90;;;;;;4840058;29;20034;-87
2023/02/14 01:10:37;;;;;;;13.57;3.80;;;-0.20;99.90;;;;;;4838407;29;20057;-89
2023/02/14 01:13:03;;;;;;;10.83;3.77;;;-0.20;99.90;;;;;;4838448;29;20078;-88
2023/02/14 01:15:29;;;;;;;10.57;4.20;;;-0.20;99.90;;;;;;4841434;29;20030;-88
2023/02/14 01:17:54;;;;;;;12.77;4.07;;;-0.10;99.90;;;;;;4840309;29;20029;-87
2023/02/14 01:20:20;;;;;;;14.20;3.97;;;-0.20;99.90;;;;;;4840197;29;20029;-87
2023/02/14 01:22:46;;;;;;;15.40;5.53;;;-0.30;99.90;;;;;;4843991;29;20064;-87
2023/02/14 01:25:12;;;;;;;13.90;4.30;;;-0.20;99.90;;;;;;4835470;29;20707;-88
2023/02/14 01:27:37;;;;;;;15.07;5.00;;;-0.30;99.90;;;;;;4845675;29;20399;-88
2023/02/14 01:30:04;;;;;;;14.60;4.93;;;-0.30;99.90;;;;;;4843918;29;20144;-88
2023/02/14 01:32:30;;;;;;;11.70;4.03;;;-0.30;99.90;;;;;;4840999;29;20105;-88
2023/02/14 01:34:56;;;;;;;13.10;4.63;;;-0.30;99.90;;;;;;4841317;29;20045;-88
2023/02/14 01:37:21;;;;;;;11.37;4.40;;;-0.30;99.90;;;;;;4833001;29;20038;-88
2023/02/14 01:39:47;;;;;;;14.00;4.70;;;-0.30;99.90;;;;;;4841532;29;20030;-88
2023/02/14 01:42:12;;;;;;;13.83;4.60;;;-0.30;99.90;;;;;;4841260;29;20049;-88
2023/02/14 01:44:38;;;;;;;12.67;4.50;;;-0.30;99.90;;;;;;4845951;29;20041;-88
2023/02/14 01:47:08;;;;;;;12.77;4.90;;;-0.30;99.90;;;;;;4839148;29;20090;-87
2023/02/14 01:49:51;;;;;;;11.13;4.60;;;-0.30;99.90;;;;;;4839816;29;20063;-87
2023/02/14 01:52:20;;;;;;;14.27;4.97;;;-0.30;99.90;;;;;;4839459;29;20025;-88
2023/02/14 01:54:52;;;;;;;16.93;5.27;;;-0.30;99.90;;;;;;4832546;29;20030;-88
2023/02/14 01:57:21;;;;;;;9.90;4.65;;;-0.30;99.90;;;;;;4836806;29;20037;-88
2023/02/14 01:59:54;;;;;;;15.50;4.97;;;-0.30;99.90;;;;;;4841021;29;20491;-88
2023/02/14 02:02:22;;;;;;;13.40;4.97;;;-0.30;99.90;;;;;;4841967;29;20403;-87
2023/02/14 02:04:51;;;;;;;12.83;3.93;;;-0.40;99.90;;;;;;4833075;29;20572;-87
2023/02/14 02:07:22;;;;;;;17.20;4.93;;;-0.40;99.90;;;;;;4839331;29;20030;-88
2023/02/14 02:09:51;;;;;;;13.43;4.87;;;-0.40;99.90;;;;;;4834891;29;20508;-87
2023/02/14 02:12:16;;;;;;;17.50;3.83;;;-0.40;99.90;;;;;;4829582;29;20113;-88
2023/02/14 02:14:43;;;;;;;13.27;4.43;;;-0.40;99.90;;;;;;4841062;29;20455;-87
2023/02/14 02:17:25;;;;;;;15.40;4.50;;;-0.40;99.90;;;;;;4841557;29;20022;-87
2023/02/14 02:20:17;;;;;;;11.68;4.80;;;-0.40;99.90;;;;;;4852920;29;20078;-88
2023/02/14 02:23:18;;;;;;;15.82;4.25;;;-0.40;99.90;;;;;;4854443;29;20048;-88
2023/02/14 02:26:02;;;;;;;13.13;4.33;;;-0.40;99.90;;;;;;4839224;29;20090;-88
2023/02/14 02:28:57;;;;;;;12.03;4.70;;;-0.40;99.90;;;;;;4837881;29;20105;-88
2023/02/14 02:31:35;;;;;;;14.27;5.17;;;-0.40;99.90;;;;;;4839703;29;20031;-87
2023/02/14 02:34:32;;;;;;;16.43;4.67;;;-0.40;99.90;;;;;;4836494;29;20030;-87
2023/02/14 02:37:21;;;;;;;15.10;4.73;;;-0.40;99.90;;;;;;4827534;29;20499;-87
2023/02/14 02:39:55;;;;;;;15.80;5.20;;;-0.40;99.90;;;;;;4848475;29;20365;-86
2023/02/14 02:42:57;;;;;;;13.43;4.73;;;-0.40;99.90;;;;;;4851627;29;20065;-88
2023/02/14 02:46:46;;;;;;;15.00;4.50;;;-0.40;99.90;;;;;;4839278;29;20112;-86
2023/02/14 02:48:39;;;;;;;15.43;5.17;;;-0.50;99.90;;;;;;4839490;29;20117;-86
2023/02/14 02:54:08;;;;;;;14.52;4.70;;;-0.50;99.90;;;;;;4830805;29;20091;-87
2023/02/14 02:56:45;;;;;;;21.50;5.53;;;-0.60;99.90;;;;;;4838206;29;20045;-87
2023/02/14 02:59:22;;;;;;;18.13;5.17;;;-0.60;99.90;;;;;;4844226;29;20391;-87
2023/02/14 03:01:55;;;;;;;15.30;4.57;;;-0.60;99.90;;;;;;4859989;29;20026;-87
2023/02/14 03:09:55;;;;;;;19.33;5.53;;;-0.50;99.90;;;;;;4859696;29;20082;-87
2023/02/14 03:12:32;;;;;;;11.23;3.83;;;-0.60;99.90;;;;;;4858449;29;20024;-88
2023/02/14 03:15:38;;;;;;;18.27;6.43;;;-0.50;99.90;;;;;;4846198;29;20045;-88
2023/02/14 03:18:16;;;;;;;19.57;5.57;;;-0.60;99.90;;;;;;4834740;29;20120;-87
2023/02/14 03:21:29;;;;;;;12.30;4.33;;;-0.60;99.90;;;;;;4838230;29;20029;-87
2023/02/14 03:27:20;;;;;;;17.57;3.93;;;1.40;99.90;;;;;;4842625;29;19912;-86
2023/02/14 03:30:38;;;;;;;19.30;4.13;;;-1.40;99.90;;;;;;4838819;29;20034;-87
2023/02/14 03:33:35;;;;;;;;;;;;;;;;;;;;;
2023/02/14 03:36:25;;;;;;;12.97;5.20;;;0.90;99.90;;;;;;4837232;29;20038;-88
2023/02/14 03:39:29;;;;;;;17.20;5.13;;;0.50;99.90;;;;;;4858584;29;20081;-87
2023/02/14 03:42:32;;;;;;;16.57;4.87;;;-0.60;99.90;;;;;;4829698;29;20419;-87
2023/02/14 03:45:24;;;;;;;14.50;5.07;;;-1.00;99.90;;;;;;4832639;29;20034;-87
2023/02/14 03:48:01;;;;;;;16.10;4.80;;;-0.50;99.90;;;;;;4838140;29;20037;-87
2023/02/14 03:53:41;;;;;;;9.73;4.05;;;-0.60;99.90;;;;;;4848089;29;20123;-87
2023/02/14 03:56:48;;;;;;;16.77;4.93;;;-0.60;99.90;;;;;;4854211;29;20519;-88
2023/02/14 03:59:34;;;;;;;13.10;4.40;;;-0.40;99.90;;;;;;4844427;29;20483;-87
2023/02/14 04:03:00;;;;;;;;;;;;;;;;;;;;;
2023/02/14 04:05:51;;;;;;;21.93;5.83;;;1.20;99.90;;;;;;4838607;29;20034;-86
2023/02/14 04:08:50;;;;;;;19.27;5.27;;;0.10;99.90;;;;;;4840565;29;20053;-88
2023/02/14 04:12:05;;;;;;;14.03;4.47;;;-0.30;99.90;;;;;;4856094;29;20400;-87
2023/02/14 04:14:50;;;;;;;14.43;4.13;;;0.00;99.90;;;;;;4861266;29;20800;-87
2023/02/14 04:20:38;;;;;;;;;;;;;;;;;;;;;
2023/02/14 04:23:33;;;;;;;18.20;5.63;;;-0.40;99.90;;;;;;4840584;29;20021;-86
2023/02/14 04:26:09;;;;;;;19.87;5.30;;;-0.90;99.90;;;;;;4837159;29;20046;-87
2023/02/14 04:29:03;;;;;;;17.47;4.77;;;-0.30;99.90;;;;;;4841822;29;20089;-86
2023/02/14 04:32:08;;;;;;;17.20;4.67;;;-0.10;99.90;;;;;;4833823;29;20407;-87
2023/02/14 04:35:25;;;;;;;14.53;4.63;;;-0.80;99.90;;;;;;4844039;29;20198;-87
2023/02/14 04:38:12;;;;;;;16.07;4.70;;;-0.70;99.90;;;;;;4835193;29;20044;-88
2023/02/14 04:40:56;;;;;;;14.00;4.30;;;-0.40;99.90;;;;;;4841604;29;20045;-87
2023/02/14 04:43:30;;;;;;;15.50;5.07;;;-0.80;99.90;;;;;;4838412;29;20097;-87
2023/02/14 04:46:15;;;;;;;;;;;;;;;;;;;;;
2023/02/14 04:48:54;;;;;;;15.93;5.00;;;-0.30;99.90;;;;;;4841373;29;20033;-86
2023/02/14 04:51:34;;;;;;;20.07;5.93;;;-0.10;99.90;;;;;;4857991;29;20098;-86
2023/02/14 04:54:24;;;;;;;17.13;5.50;;;-0.30;99.90;;;;;;4841924;29;20026;-87
2023/02/14 04:57:41;;;;;;;;;;;;;;;;;;;;;
2023/02/14 05:00:53;;;;;;;;;;;;;;;;;;;;;
2023/02/14 05:03:50;;;;;;;15.07;5.63;;;-0.70;99.90;;;;;;4841350;29;20407;-87
2023/02/14 05:06:32;;;;;;;12.43;4.43;;;0.60;99.90;;;;;;4818241;29;20035;-87
2023/02/14 05:09:39;;;;;;;15.50;4.70;;;-0.60;99.90;;;;;;4807167;29;20065;-87
2023/02/14 05:12:25;;;;;;;13.70;4.57;;;-0.10;99.90;;;;;;4820499;29;20491;-86
2023/02/14 05:16:00;;;;;;;18.63;5.20;;;-0.80;99.90;;;;;;4804668;29;20057;-87
2023/02/14 05:18:33;;;;;;;15.67;5.10;;;0.10;99.90;;;;;;4818449;29;20034;-87
2023/02/14 05:24:29;;;;;;;18.48;4.57;;;-0.90;99.90;;;;;;4845321;29;20514;-86
2023/02/14 05:27:10;;;;;;;13.37;4.77;;;0.90;99.90;;;;;;4839778;29;20148;-87
2023/02/14 05:30:05;;;;;;;13.33;5.17;;;2.00;99.90;;;;;;4851087;29;20041;-86
2023/02/14 05:32:39;;;;;;;14.17;4.53;;;0.20;99.90;;;;;;4864342;29;20041;-87
2023/02/14 05:35:33;;;;;;;14.80;4.50;;;0.80;99.90;;;;;;4846768;29;20038;-87
2023/02/14 05:38:14;;;;;;;18.50;5.50;;;1.00;99.90;;;;;;4841723;29;20045;-87
2023/02/14 05:41:01;;;;;;;;;;;;;;;;;;;;;
2023/02/14 05:43:54;;;;;;;14.00;5.57;;;-1.30;99.90;;;;;;4840732;29;20038;-87
2023/02/14 05:46:25;;;;;;;15.23;4.93;;;-1.20;99.90;;;;;;4839094;29;20733;-87
2023/02/14 05:49:08;;;;;;;10.40;4.57;;;-0.20;99.90;;;;;;4853370;29;20140;-87
2023/02/14 05:51:40;;;;;;;13.77;4.37;;;-1.00;99.90;;;;;;4820685;29;20060;-87
2023/02/14 05:54:18;;;;;;;16.47;4.93;;;-0.80;99.90;;;;;;4838804;29;20125;-88
2023/02/14 05:57:36;;;;;;;13.03;4.93;;;1.70;99.90;;;;;;4841316;29;20034;-87
2023/02/14 06:00:26;;;;;;;16.30;4.40;;;-0.60;99.90;;;;;;4798820;29;20813;-86
2023/02/14 06:03:10;;;;;;;11.93;4.30;;;-0.80;99.90;;;;;;4836519;29;20038;-87
2023/02/14 06:06:08;;;;;;;12.90;4.20;;;0.80;99.90;;;;;;4837113;29;20103;-85
2023/02/14 06:20:34;;;;;;;12.70;4.27;;;-1.00;99.90;;;;;;4838738;29;20087;-88
2023/02/14 06:23:00;;;;;;;12.63;3.67;;;-1.00;99.90;;;;;;4827497;29;20042;-86
2023/02/14 06:25:38;;;;;;;12.90;4.17;;;0.60;99.90;;;;;;4823659;29;20038;-86
2023/02/14 06:28:39;;;;;;;13.57;4.23;;;-1.00;99.90;;;;;;4818806;29;20087;-85
2023/02/14 06:31:05;;;;;;;18.70;5.30;;;0.40;99.90;;;;;;4829126;29;20116;-85
2023/02/14 06:33:36;;;;;;;17.27;5.33;;;-2.10;99.90;;;;;;4819661;29;20098;-85
2023/02/14 06:36:02;;;;;;;16.10;4.63;;;2.30;99.90;;;;;;4819889;29;20481;-85
2023/02/14 06:38:27;;;;;;;14.80;4.63;;;-0.60;99.90;;;;;;4818679;29;20026;-83
2023/02/14 06:40:53;;;;;;;13.53;5.37;;;-1.40;99.90;;;;;;4829023;29;20519;-84
2023/02/14 06:43:19;;;;;;;12.43;5.70;;;-0.90;99.90;;;;;;4821557;29;20461;-85
2023/02/14 06:45:45;;;;;;;12.27;4.73;;;-1.10;99.90;;;;;;4822705;29;20027;-85
2023/02/14 06:48:11;;;;;;;24.93;5.03;;;-0.80;99.90;;;;;;4818132;29;20039;-85
2023/02/14 06:50:36;;;;;;;17.43;5.37;;;-0.90;99.90;;;;;;4818790;29;20031;-85
2023/02/14 06:53:02;;;;;;;16.70;5.30;;;-0.90;99.90;;;;;;4821586;29;20030;-83
2023/02/14 06:55:36;;;;;;;15.53;5.17;;;-0.90;99.90;;;;;;4815657;29;20038;-81
2023/02/14 06:58:05;;;;;;;19.13;5.53;;;-0.90;99.90;;;;;;4813199;29;20681;-87
2023/02/14 07:00:53;;;;;;;18.13;5.80;;;0.40;99.90;;;;;;4818176;29;20595;-86
2023/02/14 07:03:39;;;;;;;15.07;4.27;;;-0.20;99.90;;;;;;4819266;29;20046;-86
2023/02/14 07:06:38;;;;;;;;;;;;;;;;;;;;;
2023/02/14 07:13:46;;;;;;;;;;;;;;;;;;;;;
2023/02/14 07:20:47;;;;;;;;;;;;;;;;;;;;;
2023/02/14 07:27:17;;;;;;;12.95;4.82;;;-0.50;99.90;;;;;;4725354;30;20122;-86
2023/02/14 07:30:34;;;;;;;18.80;5.33;;;-0.30;99.90;;;;;;4761156;29;20043;-85
2023/02/14 07:36:29;;;;;;;15.93;5.07;;;-0.20;99.90;;;;;;1290486;27;20060;-86
2023/02/14 07:42:09;;;;;;;24.80;5.97;;;-0.60;99.90;;;;;;4839230;29;20063;-85
2023/02/14 07:44:38;;;;;;;16.20;5.73;;;0.80;99.90;;;;;;4824617;29;20027;-87
2023/02/14 07:47:12;;;;;;;16.47;5.37;;;0.30;99.90;;;;;;4837713;29;20106;-86
2023/02/14 07:49:37;;;;;;;14.60;4.83;;;1.00;99.90;;;;;;4835254;29;20038;-87
2023/02/14 07:52:04;;;;;;;25.13;6.00;;;-1.30;99.90;;;;;;4831908;29;20139;-86
2023/02/14 08:02:19;;;;;;;18.23;6.03;;;1.80;99.90;;;;;;4851608;29;20030;-88
2023/02/14 08:05:08;;;;;;;12.60;4.77;;;2.00;99.90;;;;;;4831344;29;20072;-87
2023/02/14 08:10:42;;;;;;;17.13;6.13;;;0.60;99.90;;;;;;4821924;29;20034;-87
2023/02/14 08:22:44;;;;;;;16.47;5.73;;;0.10;99.90;;;;;;4822055;29;20042;-87
2023/02/14 08:25:12;;;;;;;20.33;5.77;;;1.40;99.90;;;;;;4828144;29;20046;-87
2023/02/14 08:27:46;;;;;;;18.33;5.03;;;2.60;99.90;;;;;;4822617;29;20030;-88
2023/02/14 08:30:24;;;;;;;16.87;5.30;;;1.00;99.90;;;;;;4818426;29;20035;-87
2023/02/14 08:33:21;;;;;;;17.70;5.87;;;0.50;99.90;;;;;;4821028;29;20054;-87
2023/02/14 08:36:41;;;;;;;15.33;5.43;;;0.80;99.90;;;;;;4821320;29;20038;-88
2023/02/14 08:41:58;;;;;;;17.63;6.13;;;0.60;99.90;;;;;;4824995;29;20030;-88
2023/02/14 08:44:55;;;;;;;14.87;4.83;;;2.80;99.90;;;;;;4824857;29;20037;-88
2023/02/14 08:47:24;;;;;;;17.03;5.17;;;2.20;99.90;;;;;;4819926;29;20054;-87
2023/02/14 08:49:52;;;;;;;15.57;5.87;;;3.00;99.90;;;;;;4822827;29;20034;-87
2023/02/14 08:52:18;;;;;;;22.80;5.57;;;2.70;99.90;;;;;;4819178;29;20101;-87
2023/02/14 08:54:43;;;;;;;18.53;5.43;;;3.90;99.90;;;;;;4821304;29;20783;-87
2023/02/14 08:57:14;;;;;;;16.87;5.20;;;1.40;99.90;;;;;;4824242;29;20033;-87
2023/02/14 08:59:52;;;;;;;16.83;5.67;;;3.90;99.90;;;;;;4823043;29;20555;-88
2023/02/14 09:02:21;;;;;;;18.70;5.80;;;0.30;99.90;;;;;;4823089;29;20034;-88
2023/02/14 09:04:49;;;;;;;17.47;5.20;;;4.60;99.90;;;;;;4821116;29;20074;-88
2023/02/14 09:07:14;;;;;;;14.63;4.53;;;3.50;99.90;;;;;;4822045;29;20034;-87
2023/02/14 09:09:40;;;;;;;15.07;5.60;;;4.70;99.90;;;;;;4824178;29;20045;-88
2023/02/14 09:12:10;;;;;;;14.43;4.70;;;2.20;99.90;;;;;;4818354;29;20037;-88
2023/02/14 09:14:42;;;;;;;15.63;4.80;;;4.60;99.90;;;;;;4822419;29;20022;-88
2023/02/14 09:17:10;;;;;;;15.33;5.73;;;1.30;99.90;;;;;;4824234;29;20027;-87
2023/02/14 09:19:37;;;;;;;17.67;5.60;;;1.60;99.90;;;;;;4840738;29;20400;-87
2023/02/14 09:22:06;;;;;;;15.33;4.63;;;5.40;99.90;;;;;;4823257;29;20056;-88
2023/02/14 09:24:33;;;;;;;14.50;4.90;;;4.90;99.90;;;;;;4835659;29;20069;-87
2023/02/14 09:26:59;;;;;;;16.83;5.37;;;2.70;99.90;;;;;;4819047;29;20026;-87
2023/02/14 09:29:28;;;;;;;18.97;5.00;;;2.60;99.90;;;;;;4821229;29;20042;-87
2023/02/14 09:32:05;;;;;;;10.87;4.83;;;3.60;99.90;;;;;;4823287;29;20035;-88
2023/02/14 09:40:14;;;;;;;15.90;5.50;;;5.80;99.90;;;;;;4822703;29;20053;-88
2023/02/14 09:43:00;;;;;;;17.60;6.10;;;3.50;99.90;;;;;;4823255;29;20102;-88
2023/02/14 09:45:31;;;;;;;17.87;6.17;;;5.00;99.90;;;;;;4819204;29;20492;-88
2023/02/14 09:48:11;;;;;;;11.15;4.28;;;5.00;99.90;;;;;;4824664;29;20058;-88
2023/02/14 09:50:46;;;;;;;11.17;4.17;;;5.50;99.90;;;;;;4836200;29;20031;-88
2023/02/14 09:53:33;;;;;;;13.63;4.50;;;3.40;99.90;;;;;;4836541;29;20022;-88
2023/02/14 09:56:16;;;;;;;11.87;4.33;;;5.80;99.90;;;;;;4844150;29;20031;-88
2023/02/14 09:59:46;;;;;;;12.38;4.22;;;3.40;99.90;;;;;;4839772;29;20030;-89
2023/02/14 10:02:22;;;;;;;10.43;4.17;;;6.00;99.90;;;;;;4774811;29;20295;-89
2023/02/14 10:05:20;;;;;;;14.43;4.70;;;3.80;99.90;;;;;;4780697;29;20066;-88
2023/02/14 10:08:18;;;;;;;11.90;4.07;;;3.70;99.90;;;;;;4802887;29;20038;-87
2023/02/14 10:10:55;;;;;;;12.03;3.80;;;3.80;99.90;;;;;;4820473;29;20059;-88
2023/02/14 10:13:44;;;;;;;12.23;4.13;;;3.80;99.90;;;;;;4819210;29;20095;-88
2023/02/14 10:16:31;;;;;;;10.50;4.07;;;3.90;99.90;;;;;;4818213;29;20023;-88
2023/02/14 10:19:07;;;;;;;10.70;3.50;;;4.00;99.90;;;;;;4836399;29;20026;-87
2023/02/14 10:21:47;;;;;;;10.00;3.13;;;4.20;99.90;;;;;;4819904;29;20041;-88
2023/02/14 10:24:41;;;;;;;7.97;3.10;;;4.10;99.90;;;;;;4823020;29;20035;-87
2023/02/14 10:27:41;;;;;;;7.97;3.60;;;5.60;99.90;;;;;;4820091;29;20030;-87
2023/02/14 10:30:23;;;;;;;14.93;4.60;;;5.80;99.90;;;;;;4818702;29;20137;-88
2023/02/14 10:33:17;;;;;;;10.18;4.00;;;4.40;99.90;;;;;;4823677;29;20034;-88
2023/02/14 10:36:01;;;;;;;7.17;3.27;;;4.50;99.90;;;;;;4820680;29;20030;-88
2023/02/14 10:38:49;;;;;;;9.90;3.73;;;4.70;99.90;;;;;;4820153;29;20033;-88
2023/02/14 10:41:34;;;;;;;12.43;4.37;;;;;;;;;;4820805;29;20046;-88
2023/02/14 10:44:06;;;;;;;12.13;3.80;;;;;;;;;;4819508;29;20075;-88
2023/02/14 10:46:51;;;;;;;8.77;3.13;;;;;;;;;;4821412;29;20035;-87
2023/02/14 10:49:47;;;;;;;12.47;3.97;;;4.80;99.90;;;;;;4824908;29;20038;-88
2023/02/14 10:52:26;;;;;;;10.30;4.60;;;4.50;99.90;;;;;;4824613;29;20127;-88
2023/02/14 10:55:06;;;;;;;9.33;3.67;;;6.50;99.90;;;;;;4821125;29;20117;-88
2023/02/14 10:57:42;;;;;;;10.77;4.03;;;5.20;99.90;;;;;;4817244;29;20131;-87
2023/02/14 11:00:32;;;;;;;11.67;4.00;;;6.40;99.90;;;;;;4822189;29;20085;-86
2023/02/14 11:03:21;;;;;;;11.77;4.50;;;5.60;99.90;;;;;;4821332;29;20488;-88
2023/02/14 11:05:48;;;;;;;8.97;3.57;;;8.10;99.90;;;;;;4826880;29;20042;-88
2023/02/14 11:08:25;;;;;;;12.80;3.87;;;5.30;99.90;;;;;;4828898;29;20033;-88
2023/02/14 11:11:01;;;;;;;10.43;3.70;;;5.70;99.90;;;;;;4820228;29;20035;-89
2023/02/14 11:13:41;;;;;;;13.47;3.73;;;7.00;99.90;;;;;;4824415;29;20054;-88
2023/02/14 11:16:17;;;;;;;11.10;4.03;;;5.60;99.90;;;;;;4824148;29;20045;-88
2023/02/14 11:18:43;;;;;;;8.87;3.90;;;6.20;99.90;;;;;;4824290;29;20018;-88
2023/02/14 11:21:16;;;;;;;12.50;3.77;;;7.00;99.90;;;;;;4818877;29;20156;-88
2023/02/14 11:23:49;;;;;;;8.50;3.67;;;5.70;99.90;;;;;;4822173;29;20099;-87
2023/02/14 11:26:26;;;;;;;13.00;3.83;;;5.80;99.90;;;;;;4822890;29;20045;-87
2023/02/14 11:28:57;;;;;;;8.70;3.97;;;;;;;;;;4820507;29;20065;-87
2023/02/14 11:31:29;;;;;;;11.03;4.10;;;8.20;99.90;;;;;;4816218;29;20484;-88
2023/02/14 11:34:35;;;;;;;12.57;4.05;;;5.90;99.90;;;;;;4818515;29;20038;-88
2023/02/14 11:37:24;;;;;;;10.03;3.33;;;6.50;99.90;;;;;;4821919;29;20495;-87
2023/02/14 11:39:55;;;;;;;9.63;3.63;;;6.60;99.90;;;;;;4820963;29;20031;-89
2023/02/14 11:42:47;;;;;;;10.50;3.97;;;6.20;99.90;;;;;;4823600;29;20041;-88
2023/02/14 11:45:56;;;;;;;11.93;4.00;;;9.00;99.90;;;;;;4817747;29;20099;-88
2023/02/14 11:48:31;;;;;;;11.60;4.10;;;7.50;99.90;;;;;;4818211;29;20591;-87
2023/02/14 11:51:07;;;;;;;10.87;3.87;;;6.60;99.90;;;;;;4824726;29;20026;-87
2023/02/14 11:54:04;;;;;;;11.07;3.30;;;6.80;99.90;;;;;;4816543;29;20037;-88
2023/02/14 11:57:00;;;;;;;9.80;3.67;;;7.50;99.90;;;;;;4822559;29;20702;-88
2023/02/14 11:59:36;;;;;;;8.83;3.87;;;7.20;99.90;;;;;;4818016;29;20031;-87
2023/02/14 12:02:54;;;;;;;8.53;3.67;;;7.40;99.90;;;;;;4822004;29;20053;-88
2023/02/14 12:05:33;;;;;;;8.53;3.70;;;7.10;99.90;;;;;;4786153;29;20034;-88
2023/02/14 12:08:27;;;;;;;11.60;3.90;;;6.80;99.90;;;;;;4821645;29;20034;-88
2023/02/14 12:11:21;;;;;;;8.20;3.30;;;7.90;99.90;;;;;;4821397;29;20416;-87
2023/02/14 12:13:58;;;;;;;9.53;3.97;;;7.60;99.90;;;;;;4818410;29;20090;-88
2023/02/14 12:17:13;;;;;;;10.53;3.67;;;7.40;99.90;;;;;;4819207;29;20033;-88
2023/02/14 12:20:13;;;;;;;9.47;3.80;;;8.40;99.90;;;;;;4821293;29;20050;-88
2023/02/14 12:22:56;;;;;;;11.00;3.95;;;7.80;99.90;;;;;;4818907;29;20102;-87
2023/02/14 12:25:53;;;;;;;12.50;4.10;;;7.20;99.90;;;;;;4819717;29;20083;-88
2023/02/14 12:28:30;;;;;;;9.23;3.55;;;7.80;99.90;;;;;;4821234;29;20090;-88
2023/02/14 12:30:58;;;;;;;10.68;4.03;;;8.60;99.90;;;;;;4818410;29;20031;-88
2023/02/14 12:33:24;;;;;;;10.05;3.92;;;8.00;99.90;;;;;;4818077;29;20112;-87
2023/02/14 12:36:07;;;;;;;8.32;3.42;;;7.90;99.90;;;;;;4818775;29;20568;-87
2023/02/14 12:39:01;;;;;;;9.05;3.50;;;7.80;99.90;;;;;;4820004;29;20034;-87
2023/02/14 12:41:58;;;;;;;7.70;3.20;;;7.80;99.90;;;;;;4820520;29;20091;-88
2023/02/14 12:44:52;;;;;;;7.80;3.05;;;8.00;99.90;;;;;;4817615;29;20054;-88
2023/02/14 12:47:29;;;;;;;5.72;3.00;;;8.00;99.90;;;;;;4818516;29;20673;-88
2023/02/14 12:50:17;;;;;;;8.43;3.78;;;8.20;99.90;;;;;;4818607;29;20124;-88
2023/02/14 12:53:20;;;;;;;11.32;3.50;;;8.20;99.90;;;;;;4812788;29;20034;-87
2023/02/14 12:55:54;;;;;;;7.70;3.25;;;8.20;99.90;;;;;;4819026;29;20041;-87
2023/02/14 12:58:28;;;;;;;8.77;2.97;;;8.30;99.90;;;;;;4818395;29;20068;-87
2023/02/14 13:00:56;;;;;;;8.45;3.75;;;8.40;99.90;;;;;;4814897;29;20042;-87
2023/02/14 13:03:25;;;;;;;8.50;3.50;;;8.60;99.90;;;;;;4820295;29;20037;-87
2023/02/14 13:06:15;;;;;;;8.27;3.42;;;8.60;99.90;;;;;;4821764;29;20049;-87
2023/02/14 13:08:43;;;;;;;10.40;3.58;;;8.80;99.90;;;;;;4819324;29;20039;-88
2023/02/14 13:11:45;;;;;;;13.60;3.97;;;9.30;99.90;;;;;;4820745;29;20373;-89
2023/02/14 13:14:27;;;;;;;8.90;3.90;;;8.90;99.90;;;;;;4822704;29;20630;-88
2023/02/14 13:17:34;;;;;;;8.90;3.22;;;9.00;99.90;;;;;;4816466;29;20087;-89
2023/02/14 13:20:41;;;;;;;8.07;3.40;;;9.80;99.90;;;;;;4835881;29;20037;-88
2023/02/14 13:23:58;;;;;;;8.88;3.40;;;9.80;99.90;;;;;;4822941;29;20033;-87
2023/02/14 13:27:07;;;;;;;10.55;3.22;;;9.70;99.90;;;;;;4819376;29;20031;-87
2023/02/14 14:16:59;;;;;;;11.00;3.65;;;10.80;99.90;;;;;;5515058;22;17915237;-87
2023/02/14 14:19:51;;;;;;;9.02;3.50;;;12.50;99.90;;;;;;6190818;23;20084;-86
2023/02/14 14:22:40;;;;;;;8.30;4.18;;;11.60;99.90;;;;;;6184916;23;20039;-88
2023/02/14 14:25:11;;;;;;;8.93;4.10;;;10.90;99.90;;;;;;6154963;23;20006;-90
2023/02/14 14:27:44;;;;;;;9.15;4.05;;;12.40;99.90;;;;;;6195967;23;20091;-90
2023/02/14 15:01:53;;;;;;;12.45;5.63;;;14.80;99.90;;;;;;6343866;22;20068;-88
2023/02/14 15:04:31;;;;;;;11.30;5.75;;;15.00;99.90;;;;;;6253547;22;20056;-89
2023/02/14 15:07:38;;;;;;;11.90;6.05;;;14.90;99.90;;;;;;6317539;22;20013;-89
2023/02/14 15:10:21;;;;;;;11.15;5.13;;;16.60;99.90;;;;;;6343642;22;20017;-89
2023/02/14 15:16:11;;;;;;;10.55;5.15;;;15.30;99.30;;;;;;6336150;22;20006;-89
2023/02/14 15:18:59;;;;;;;11.57;4.43;;;15.20;99.40;;;;;;6336303;22;19999;-90
2023/02/14 15:21:33;;;;;;;10.77;5.05;;;15.20;99.70;;;;;;6309679;22;20034;-89
2023/02/14 15:24:10;;;;;;;12.10;4.47;;;15.00;99.70;;;;;;6309816;22;20077;-89
2023/02/14 15:26:39;;;;;;;11.80;4.93;;;15.00;99.90;;;;;;6309543;22;20432;-88
2023/02/14 15:29:32;;;;;;;10.88;5.03;;;13.70;99.90;;;;;;6308850;22;20006;-89
2023/02/14 15:32:03;;;;;;;;;;;13.10;99.90;;;;;;6304962;22;20007;-88
2023/02/14 15:34:50;;;;;;;12.43;4.47;;;12.80;99.90;;;;;;6309121;22;20017;-89
2023/02/14 15:37:27;;;;;;;14.65;5.28;;;10.80;99.90;;;;;;6311490;22;20444;-89
2023/02/14 15:40:01;;;;;;;9.25;4.97;;;11.00;99.90;;;;;;6309115;22;20007;-90
2023/02/14 15:42:31;;;;;;;11.45;4.93;;;11.10;99.90;;;;;;6317664;22;20009;-90
2023/02/14 15:45:16;;;;;;;12.25;5.22;;;11.10;99.90;;;;;;6355820;22;20024;-88
2023/02/14 15:47:49;;;;;;;15.48;5.65;;;9.00;99.90;;;;;;6318022;22;20034;-89
2023/02/14 15:51:01;;;;;;;11.73;5.25;;;9.60;99.90;;;;;;6308984;22;20425;-90
2023/02/14 15:53:41;;;;;;;13.20;5.25;;;9.00;99.90;;;;;;6293097;22;20430;-91
2023/02/14 15:56:35;;;;;;;13.13;5.63;;;8.90;99.90;;;;;;6312407;22;20013;-89
2023/02/14 15:59:06;;;;;;;14.00;5.25;;;9.20;99.90;;;;;;6311121;22;20002;-89
2023/02/14 16:01:37;;;;;;;15.37;5.23;;;9.70;99.90;;;;;;6310486;22;20158;-89
2023/02/14 16:04:23;;;;;;;12.48;4.68;;;9.40;99.90;;;;;;6310882;22;20081;-90
2023/02/14 16:07:24;;;;;;;12.57;4.60;;;9.50;99.90;;;;;;6307410;22;20006;-90
2023/02/14 16:10:11;;;;;;;12.65;5.13;;;8.90;99.90;;;;;;6298793;22;20081;-91
2023/02/14 16:18:38;;;;;;;15.70;6.03;;;8.30;99.90;;;;;;6321595;22;20011;-89
2023/02/14 16:21:55;;;;;;;12.63;5.28;;;8.70;99.90;;;;;;6308668;22;20011;-89
2023/02/14 16:24:24;;;;;;;11.93;5.20;;;8.70;99.90;;;;;;6334377;22;20335;-89
2023/02/14 16:27:12;;;;;;;9.50;3.45;;;7.80;99.90;;;;;;6305639;22;20035;-88
2023/02/14 16:29:51;;;;;;;11.32;4.90;;;8.10;99.90;;;;;;6308029;22;20014;-89
2023/02/14 16:32:40;;;;;;;15.60;5.30;;;8.10;99.90;;;;;;6308592;22;20550;-89
2023/02/14 16:35:41;;;;;;;11.32;5.40;;;7.40;99.90;;;;;;6309518;22;20017;-89
2023/02/14 16:38:27;;;;;;;12.98;5.07;;;6.90;99.90;;;;;;6337089;22;20003;-89
2023/02/14 16:41:15;;;;;;;15.23;5.60;;;7.20;99.90;;;;;;6337373;22;20441;-89
2023/02/14 16:43:43;;;;;;;12.98;5.57;;;9.40;99.90;;;;;;6306936;22;20009;-89
2023/02/14 16:46:14;;;;;;;15.20;5.22;;;6.10;99.90;;;;;;6307857;22;20075;-89
2023/02/14 16:48:45;;;;;;;15.38;5.47;;;7.20;99.90;;;;;;6308097;22;20003;-89
2023/02/14 16:51:34;;;;;;;12.15;5.32;;;9.20;99.90;;;;;;6310668;22;20014;-90
2023/02/14 16:54:05;;;;;;;11.68;4.68;;;6.20;99.90;;;;;;6310429;22;20006;-90
2023/02/14 16:57:14;;;;;;;12.63;4.80;;;6.50;99.90;;;;;;6310133;22;20033;-89
2023/02/14 16:59:40;;;;;;;14.57;5.30;;;6.60;99.90;;;;;;6154654;23;20008;-90